Academy, Texas
Current Conditions -  °F | °C
As of 4:55 AM on Sunday 23 Nov 2014 (Local Time) from KTPL Reporting Station
Overcast Overcast  
Wind Chill: 13°   Ceiling: 900
Heat Index: 13°   Visibility: 10mi
Dew Point: 11°   Wind: 5mph
Humidity: 88%   Direction: 150°SSE
Pressure: 29.64"   Gusts: NA
Location:  30.9809°N, 97.3415°W
Report Text: KTPL 231055Z AUTO 15004KT 10SM OVC009 13/11 A2964 RMK AO1
Loading
Personal Weather Stations






























Interactive Weather Map New forecast layout! Learn more

10-Day Weather Forecast

Advertisements
Track Severe Weather on mobile